createdAt,value
2023-05-18T05:39:12.330Z,2.60
2023-05-18T05:40:14.097Z,2.60
2023-05-18T05:41:16.178Z,2.60
2023-05-18T06:10:27.807Z,2.42
2023-05-18T06:11:29.525Z,2.67
2023-05-18T06:12:31.139Z,2.33
2023-05-18T06:13:34.072Z,2.20
2023-05-18T06:14:35.736Z,2.40
2023-05-18T06:15:37.289Z,2.90
2023-05-18T06:16:39.242Z,2.58
2023-05-18T06:17:41.106Z,2.40
2023-05-18T06:18:43.301Z,2.88
2023-05-18T06:19:48.294Z,2.25
2023-05-18T06:20:49.930Z,2.60
2023-05-18T06:21:52.879Z,3.08
2023-05-18T06:22:54.460Z,2.33
2023-05-18T06:23:56.907Z,2.60
2023-05-18T06:24:58.877Z,2.33
2023-05-18T06:26:01.185Z,2.70
2023-05-18T06:27:05.133Z,2.53
2023-05-18T06:28:06.878Z,2.15
2023-05-18T06:29:11.388Z,2.38
2023-05-18T06:30:13.504Z,2.67
2023-05-18T06:31:16.021Z,3.35
2023-05-18T06:32:17.756Z,2.17
2023-05-18T06:33:21.417Z,2.70
2023-05-18T06:34:23.387Z,2.65
2023-05-18T07:13:51.773Z,2.20
2023-05-18T07:14:54.720Z,2.92
2023-05-18T07:15:57.207Z,2.63
2023-05-18T07:17:00.366Z,2.60
2023-05-18T07:18:02.388Z,1.95
2023-05-18T07:19:05.380Z,2.45
2023-05-18T07:20:07.542Z,2.70
2023-05-18T07:21:09.946Z,2.00
2023-05-18T07:22:11.657Z,2.17
2023-05-18T07:23:13.857Z,2.08
2023-05-18T07:24:16.222Z,2.38
2023-05-18T07:25:20.524Z,2.45
2023-05-18T07:26:22.769Z,2.45
2023-05-18T07:27:28.217Z,2.28
2023-05-18T07:28:29.871Z,3.00
2023-05-18T07:29:32.481Z,2.80
2023-05-18T07:30:34.242Z,2.47
2023-05-18T07:31:39.235Z,2.50
2023-05-18T07:32:41.736Z,2.45
2023-05-18T07:33:45.013Z,3.03
2023-05-18T07:34:49.870Z,2.97
2023-05-18T07:35:51.881Z,2.72
2023-05-18T07:36:54.576Z,2.65
2023-05-18T07:37:57.581Z,2.42
2023-05-18T07:39:00.625Z,1.90
2023-05-18T07:40:02.607Z,2.47
2023-05-18T07:41:04.624Z,2.35
2023-05-18T07:42:07.048Z,2.63
2023-05-18T07:43:08.874Z,2.65
2023-05-18T07:44:10.607Z,2.08
2023-05-18T07:45:12.434Z,2.05
2023-05-18T07:46:15.462Z,2.30
2023-05-18T07:47:17.145Z,2.70
2023-05-18T07:48:19.108Z,2.08
2023-05-18T07:49:23.771Z,1.77
2023-05-18T07:50:26.739Z,1.83
2023-05-18T07:51:28.338Z,2.10
2023-05-18T07:52:30.086Z,1.90
2023-05-18T07:53:31.933Z,2.20
2023-05-18T07:54:34.915Z,1.85
2023-05-18T07:55:36.635Z,1.90
2023-05-18T07:56:38.536Z,1.88
2023-05-18T07:57:40.217Z,1.95
2023-05-18T07:58:42.035Z,2.20
2023-05-18T07:59:45.184Z,1.83
2023-05-18T08:00:46.959Z,1.80
2023-05-18T08:01:49.442Z,1.77
2023-05-18T08:02:52.015Z,2.75
2023-05-18T08:03:54.823Z,2.10
2023-05-18T08:36:13.766Z,1.92
2023-05-18T08:37:15.396Z,2.13
2023-05-18T08:38:17.181Z,1.95
2023-05-18T08:39:22.582Z,3.35
2023-05-18T08:40:26.913Z,1.85
2023-05-18T08:41:41.202Z,1.83
2023-05-18T08:42:49.911Z,1.63
2023-05-18T08:43:54.167Z,1.38
2023-05-18T08:44:56.415Z,1.80
2023-05-18T08:46:17.274Z,1.70
2023-05-18T08:47:26.159Z,2.05
2023-05-18T08:48:28.643Z,2.17
2023-05-18T08:49:32.136Z,1.70
2023-05-18T08:50:34.935Z,1.80
2023-05-18T08:51:38.237Z,1.95
2023-05-18T08:52:42.497Z,1.70
2023-05-18T08:53:44.620Z,2.03
2023-05-18T08:54:48.626Z,2.05
2023-05-18T08:55:51.835Z,1.60
2023-05-18T08:56:53.931Z,1.88
2023-05-18T08:57:57.453Z,1.80
2023-05-18T08:58:59.941Z,1.58
2023-05-18T09:00:02.684Z,1.55
2023-05-18T09:01:04.528Z,1.50
2023-05-18T09:02:06.947Z,1.60
2023-05-18T09:03:08.913Z,1.55
2023-05-18T09:04:10.831Z,1.60
2023-05-18T09:05:13.532Z,1.83
2023-05-18T09:06:16.252Z,1.52
2023-05-18T09:07:18.637Z,1.55
2023-05-18T09:08:20.348Z,1.98
2023-05-18T09:09:23.863Z,1.63
2023-05-18T10:10:46.433Z,1.00
2023-05-18T10:11:50.237Z,1.13
2023-05-18T10:12:52.585Z,1.40
2023-05-18T10:13:58.596Z,1.30
2023-05-18T10:15:00.345Z,1.83
2023-05-18T10:16:03.485Z,1.05
2023-05-18T10:17:15.021Z,1.20
2023-05-18T10:18:24.214Z,0.88
2023-05-18T10:19:26.415Z,1.20
2023-05-18T10:20:29.779Z,1.10
2023-05-18T10:21:34.145Z,1.00
2023-05-18T10:22:40.641Z,0.85
2023-05-18T10:23:45.132Z,1.55
2023-05-18T10:24:50.466Z,1.10
2023-05-18T10:25:53.460Z,0.85
2023-05-18T10:26:57.718Z,1.25
2023-05-18T10:28:01.295Z,1.05
2023-05-18T10:29:07.505Z,1.20
2023-05-18T10:30:10.257Z,1.08
2023-05-18T10:31:13.053Z,1.52
2023-05-18T10:32:15.562Z,1.40
2023-05-18T10:33:28.460Z,1.50
2023-05-18T10:34:35.247Z,1.45
2023-05-18T10:35:38.544Z,1.23
2023-05-18T10:36:41.726Z,1.15
2023-05-18T10:37:50.787Z,1.30
2023-05-18T10:38:52.600Z,1.20
2023-05-18T10:39:55.147Z,1.10
2023-05-18T10:41:00.585Z,1.20
2023-05-18T10:42:03.005Z,1.08
2023-05-18T10:43:05.514Z,1.20
2023-05-18T10:44:07.571Z,0.98
2023-05-18T10:45:10.065Z,1.25
2023-05-18T10:46:12.873Z,1.17
2023-05-18T10:47:16.318Z,1.15
2023-05-18T10:48:22.245Z,1.20
2023-05-18T10:49:26.123Z,1.20
2023-05-18T10:50:28.043Z,0.90
2023-05-18T10:51:31.875Z,1.20
2023-05-18T10:52:34.301Z,1.15
2023-05-18T10:53:37.074Z,1.25
2023-05-18T10:54:40.435Z,1.38
2023-05-18T10:55:42.467Z,1.17
2023-05-18T10:56:45.715Z,0.98
2023-05-18T10:57:52.860Z,1.00
2023-05-18T10:58:55.597Z,1.58
2023-05-18T10:59:58.193Z,1.20
2023-05-18T11:01:01.436Z,1.23
2023-05-18T11:02:03.975Z,1.50
2023-05-18T11:03:09.096Z,1.30
2023-05-18T11:04:11.286Z,1.17
2023-05-18T11:05:13.559Z,1.30
2023-05-18T11:06:23.444Z,0.98
2023-05-18T11:07:28.637Z,0.90
2023-05-18T11:08:31.321Z,0.90
2023-05-18T11:09:34.240Z,1.00
2023-05-18T11:10:41.332Z,0.90
2023-05-18T11:11:53.226Z,1.05
2023-05-18T11:12:55.140Z,1.25
2023-05-18T11:14:01.583Z,1.08
2023-05-18T11:15:03.318Z,1.27
2023-05-18T11:16:06.721Z,0.98
2023-05-18T11:17:18.102Z,1.63
2023-05-18T11:18:19.872Z,0.90
2023-05-18T11:19:28.401Z,1.00
2023-05-18T11:20:30.310Z,1.10
2023-05-18T11:21:53.052Z,0.93
2023-05-18T11:23:00.036Z,1.08
2023-05-18T11:24:23.386Z,1.02
2023-05-18T11:25:25.848Z,1.00
2023-05-18T11:26:29.594Z,1.00
2023-05-18T11:27:31.891Z,1.40
2023-05-18T11:28:42.753Z,1.10
2023-05-18T11:29:49.665Z,1.03
2023-05-18T11:30:52.538Z,0.85
2023-05-18T11:31:54.930Z,1.02
2023-05-18T11:33:16.168Z,1.10
2023-05-18T11:34:56.126Z,1.02
2023-05-18T11:36:01.024Z,1.20
2023-05-18T11:37:03.488Z,1.27
2023-05-18T11:38:08.670Z,1.73
2023-05-18T11:39:11.918Z,1.30
2023-05-18T11:40:35.289Z,1.00
2023-05-18T11:41:42.827Z,1.85
2023-05-18T11:42:57.916Z,0.90
2023-05-18T11:44:07.425Z,1.33
2023-05-18T11:45:10.437Z,1.13
2023-05-18T11:46:18.101Z,1.20
2023-05-18T11:47:19.856Z,1.10
2023-05-18T11:48:23.011Z,2.22
2023-05-18T11:49:27.741Z,1.67
2023-05-18T11:50:31.159Z,1.40
2023-05-18T11:51:33.642Z,1.05
2023-05-18T11:52:46.403Z,1.40
2023-05-18T11:53:48.920Z,1.60
2023-05-18T11:54:53.397Z,1.17
2023-05-18T11:55:56.727Z,1.17
2023-05-18T11:56:59.312Z,1.23
2023-05-18T11:58:01.631Z,1.33
2023-05-18T11:59:16.174Z,1.40
2023-05-18T12:00:18.607Z,1.60
2023-05-18T12:01:20.494Z,1.80
2023-05-18T12:02:24.368Z,1.50
2023-05-18T12:03:26.613Z,2.30
2023-05-18T12:04:29.058Z,1.50
2023-05-18T12:05:30.897Z,1.10
2023-05-18T12:06:32.907Z,1.20
2023-05-18T12:07:36.657Z,1.80
2023-05-18T12:08:44.135Z,1.30
2023-05-18T12:09:47.556Z,1.30
2023-05-18T12:10:49.459Z,1.17
2023-05-18T12:11:51.586Z,1.42
2023-05-18T12:12:53.380Z,1.45
2023-05-18T12:13:55.297Z,1.23
2023-05-18T12:14:58.373Z,1.17
2023-05-18T12:16:00.495Z,1.10
2023-05-18T12:17:02.799Z,1.23
2023-05-18T12:18:05.220Z,0.98
2023-05-18T12:19:09.729Z,1.35
2023-05-18T12:20:14.089Z,1.25
2023-05-18T12:21:17.270Z,1.10
2023-05-18T12:22:19.040Z,1.17
2023-05-18T12:23:24.306Z,1.38
2023-05-18T12:24:25.978Z,1.20
2023-05-18T12:25:29.100Z,1.17
2023-05-18T12:26:32.752Z,1.42
2023-05-18T12:27:39.119Z,1.00
2023-05-18T12:28:40.872Z,1.13
2023-05-18T12:29:44.107Z,1.00
2023-05-18T12:30:46.426Z,1.50
2023-05-18T12:31:48.300Z,1.20
2023-05-18T12:32:54.857Z,1.48
2023-05-18T12:33:59.101Z,1.30
2023-05-18T12:35:01.273Z,0.90
2023-05-18T12:36:24.618Z,1.40
2023-05-18T12:37:34.234Z,1.30
2023-05-18T12:38:48.917Z,1.08
2023-05-18T12:39:54.515Z,1.20
2023-05-18T12:40:57.426Z,1.00
2023-05-18T12:42:29.639Z,1.10
2023-05-18T12:43:35.262Z,1.25
2023-05-18T12:44:38.667Z,1.13
2023-05-18T12:45:44.322Z,1.15
2023-05-18T12:46:46.146Z,1.05
2023-05-18T12:47:47.876Z,1.05
2023-05-18T12:48:56.538Z,1.20
2023-05-18T12:50:01.227Z,1.13
2023-05-18T12:51:03.729Z,0.77
2023-05-18T12:52:14.072Z,1.20
2023-05-18T12:53:16.224Z,0.90
2023-05-18T12:54:27.675Z,1.42
2023-05-18T12:55:32.708Z,1.05
2023-05-18T12:57:01.790Z,0.93
2023-05-18T12:58:17.222Z,1.02
2023-05-18T12:59:20.185Z,0.93
2023-05-18T13:00:23.101Z,1.23
2023-05-18T13:01:28.415Z,1.20
2023-05-18T13:02:32.231Z,1.20
2023-05-18T13:03:37.806Z,0.75
2023-05-18T13:04:43.659Z,0.90
2023-05-18T13:05:46.306Z,1.15
2023-05-18T13:06:48.796Z,1.13
2023-05-18T13:07:50.906Z,0.88
2023-05-18T13:08:56.036Z,0.98
2023-05-18T13:10:01.327Z,1.27
2023-05-18T13:11:13.813Z,1.05
2023-05-18T13:12:17.363Z,1.00
2023-05-18T13:13:20.724Z,1.20
2023-05-18T13:14:25.940Z,1.02
2023-05-18T13:15:32.720Z,1.30
2023-05-18T13:16:35.409Z,1.33
2023-05-18T13:17:37.270Z,1.30
2023-05-18T13:18:38.920Z,1.00
2023-05-18T13:19:40.974Z,1.05
2023-05-18T13:20:49.886Z,1.10
2023-05-18T13:21:59.224Z,1.25
2023-05-18T13:23:21.833Z,0.98
2023-05-18T13:24:23.463Z,1.25
2023-05-18T13:25:25.603Z,1.45
2023-05-18T13:26:27.532Z,0.93
2023-05-18T13:27:29.572Z,1.13
2023-05-18T13:28:32.332Z,1.05
2023-05-18T13:29:34.727Z,1.20
2023-05-18T13:30:39.256Z,1.10
2023-05-18T13:31:41.216Z,1.35
2023-05-18T13:32:43.431Z,1.20
2023-05-18T13:33:45.526Z,1.10
2023-05-18T13:34:47.154Z,1.05
2023-05-18T13:35:50.166Z,1.40
2023-05-18T13:36:52.824Z,1.42
2023-05-18T13:37:54.665Z,1.40
2023-05-18T13:38:56.542Z,1.02
2023-05-18T13:39:58.469Z,1.20
2023-05-18T13:41:00.480Z,1.17
2023-05-18T13:42:03.205Z,1.38
2023-05-18T13:43:10.114Z,1.15
2023-05-18T13:44:15.147Z,0.90
2023-05-18T13:45:16.914Z,1.50
2023-05-18T13:46:20.649Z,1.38
2023-05-18T13:47:24.844Z,1.63
2023-05-18T13:48:29.521Z,1.05
2023-05-18T13:49:31.526Z,1.50
2023-05-18T13:50:33.691Z,1.10
2023-05-18T13:51:36.396Z,0.93
2023-05-18T13:52:38.412Z,1.20
2023-05-18T13:53:41.009Z,1.10
2023-05-18T13:54:43.022Z,0.90
2023-05-18T13:55:45.732Z,1.02
2023-05-18T13:56:51.096Z,1.00
2023-05-18T13:57:53.388Z,0.90
2023-05-18T13:58:55.064Z,0.90
2023-05-18T17:17:25.768Z,1.52
2023-05-18T17:24:41.597Z,1.10
2023-05-18T17:25:45.439Z,0.90
2023-05-18T17:26:47.919Z,1.63
2023-05-18T17:27:49.559Z,1.55
2023-05-18T17:28:51.384Z,0.90
2023-05-18T17:29:53.158Z,1.73
2023-05-18T17:30:54.796Z,1.30
2023-05-18T17:31:56.781Z,1.90
2023-05-18T17:32:58.546Z,1.35
2023-05-18T17:34:00.311Z,2.42
2023-05-18T17:35:02.312Z,1.42
2023-05-18T17:36:04.115Z,1.38
2023-05-18T17:37:05.804Z,1.70
2023-05-18T17:38:08.963Z,1.48
2023-05-18T17:39:12.575Z,1.25
2023-05-18T17:40:14.616Z,1.30
2023-05-18T17:41:16.927Z,0.95
2023-05-18T17:42:18.928Z,1.70
2023-05-18T17:43:20.982Z,0.90
2023-05-18T17:44:23.892Z,1.20
2023-05-18T17:45:25.631Z,1.10
2023-05-18T17:46:27.545Z,1.42
2023-05-18T17:47:29.599Z,0.88
2023-05-18T17:48:31.272Z,1.17
2023-05-18T17:49:33.948Z,1.25
2023-05-18T17:50:38.191Z,1.52
2023-05-18T17:51:40.141Z,3.33
2023-05-18T17:52:41.802Z,5.63
2023-05-18T17:53:44.892Z,5.00
2023-05-18T17:54:46.597Z,2.00
2023-05-18T17:55:48.911Z,7.13
2023-05-18T17:56:51.418Z,1.80
2023-05-18T17:57:53.081Z,2.33
2023-05-18T17:58:54.768Z,1.40
2023-05-18T17:59:56.485Z,1.58
2023-05-18T18:00:58.744Z,1.42
2023-05-18T18:02:00.591Z,1.80
2023-05-18T18:03:02.614Z,1.98
2023-05-18T18:04:07.662Z,6.38
2023-05-18T18:05:11.296Z,4.90
2023-05-18T18:06:13.677Z,3.40
2023-05-18T18:07:15.418Z,3.05
2023-05-18T18:08:17.406Z,2.90
2023-05-18T18:09:19.304Z,2.72
2023-05-18T18:10:21.094Z,3.10
2023-05-18T18:11:24.490Z,2.13
2023-05-18T18:12:26.289Z,2.50
2023-05-18T18:13:28.200Z,2.35
2023-05-18T18:14:30.180Z,2.58
2023-05-18T18:15:31.910Z,2.10
2023-05-18T18:16:34.214Z,1.75
2023-05-18T18:17:36.332Z,1.85
2023-05-18T18:18:38.587Z,1.27
2023-05-18T18:19:40.267Z,1.60
2023-05-18T18:20:41.923Z,1.27
2023-05-18T18:21:43.980Z,1.90
2023-05-18T18:22:47.670Z,2.03
2023-05-18T18:23:49.237Z,3.08
2023-05-18T18:24:51.574Z,2.92
2023-05-18T18:25:54.347Z,1.67
2023-05-18T18:26:56.473Z,2.83
2023-05-18T18:28:00.899Z,2.13
2023-05-18T18:29:02.739Z,1.90
2023-05-18T18:30:07.700Z,2.30
2023-05-18T18:31:09.438Z,2.53
2023-05-18T18:32:11.217Z,3.33
2023-05-18T18:33:14.489Z,2.20
2023-05-18T18:34:16.141Z,2.45
2023-05-18T18:35:17.964Z,2.20
2023-05-18T18:36:19.642Z,2.13
2023-05-18T18:37:22.088Z,2.30
2023-05-18T18:38:29.521Z,2.33
2023-05-18T18:39:31.814Z,2.10
2023-05-18T18:40:37.728Z,2.53
2023-05-18T18:41:39.294Z,4.15
2023-05-18T18:42:41.770Z,5.15
2023-05-18T18:43:44.355Z,4.53
2023-05-18T18:44:46.030Z,5.07
2023-05-18T18:45:47.640Z,5.07
2023-05-18T18:46:49.825Z,7.05
2023-05-18T18:47:51.542Z,5.95
2023-05-18T18:48:53.692Z,5.90
2023-05-18T18:49:55.323Z,6.55
2023-05-18T18:50:57.431Z,5.15
2023-05-18T18:51:59.568Z,4.40
2023-05-18T18:53:01.228Z,5.30
2023-05-18T18:54:02.984Z,4.55
2023-05-18T18:55:05.063Z,6.07
2023-05-18T18:56:07.588Z,5.75
2023-05-18T18:57:10.399Z,6.45
2023-05-18T18:58:12.123Z,7.10
2023-05-18T18:59:14.949Z,9.77
2023-05-18T19:00:17.923Z,9.15
2023-05-18T19:01:23.622Z,11.27
2023-05-18T19:02:25.594Z,9.38
2023-05-18T19:03:28.400Z,12.90
2023-05-18T19:04:30.235Z,16.15
2023-05-18T19:05:32.671Z,21.25
2023-05-18T19:06:34.836Z,11.73
2023-05-18T19:07:36.620Z,9.95
2023-05-18T19:08:38.238Z,12.15
2023-05-18T19:09:41.532Z,11.23
2023-05-18T19:10:45.008Z,8.60
2023-05-18T19:11:47.529Z,8.23
2023-05-18T19:12:52.885Z,7.78
2023-05-18T19:13:54.619Z,5.85
2023-05-18T19:14:56.290Z,5.00
2023-05-18T19:15:58.489Z,5.32
2023-05-18T19:17:01.752Z,4.60
2023-05-18T19:18:04.278Z,4.30
2023-05-18T19:19:09.084Z,3.45
2023-05-18T19:27:25.172Z,3.30
2023-05-18T19:28:28.311Z,3.15
2023-05-18T19:29:29.992Z,3.15
2023-05-18T19:30:31.797Z,3.13
2023-05-18T19:31:34.752Z,3.10
2023-05-18T19:32:37.490Z,2.42
2023-05-18T19:33:39.175Z,3.00
2023-05-18T19:34:40.889Z,2.53
2023-05-18T19:35:42.882Z,2.30
2023-05-18T19:36:44.642Z,2.70
2023-05-18T19:37:46.392Z,2.60
2023-05-18T19:38:55.555Z,3.00
2023-05-18T19:39:57.215Z,2.70
2023-05-18T19:40:59.355Z,3.25
2023-05-18T19:42:01.264Z,2.30
2023-05-18T19:43:03.560Z,3.47
2023-05-18T19:44:06.072Z,3.97
2023-05-18T19:45:07.903Z,7.95
2023-05-18T19:46:09.689Z,40.00
2023-05-18T19:47:11.829Z,5.90
2023-05-18T19:48:14.311Z,4.07
2023-05-18T19:49:16.523Z,3.28
2023-05-18T19:50:18.099Z,2.20
2023-05-18T19:51:20.135Z,2.85
2023-05-18T19:52:24.536Z,2.30
2023-05-18T19:53:26.504Z,2.40
2023-05-18T19:54:28.484Z,2.75
2023-05-18T19:55:34.098Z,2.70
2023-05-18T19:56:37.222Z,3.78
2023-05-18T19:57:40.023Z,3.67
2023-05-18T19:58:44.002Z,2.72
2023-05-18T19:59:46.568Z,2.60
2023-05-18T20:00:48.674Z,2.20
2023-05-18T20:01:51.669Z,3.28
2023-05-18T20:02:58.791Z,4.13
2023-05-18T20:04:01.829Z,2.65
2023-05-18T20:05:06.276Z,3.03
2023-05-18T20:06:08.187Z,2.70
2023-05-18T20:07:10.022Z,3.00
2023-05-18T20:08:12.837Z,3.63
2023-05-18T20:09:14.942Z,3.00
2023-05-18T20:10:18.649Z,3.35
2023-05-18T20:11:21.215Z,2.80
2023-05-18T20:12:23.873Z,3.47
2023-05-18T20:13:29.118Z,3.50
2023-05-18T20:14:33.372Z,3.10
2023-05-18T20:15:37.318Z,2.95
2023-05-18T20:16:40.812Z,3.40
2023-05-18T20:17:43.112Z,3.40
2023-05-18T20:18:45.976Z,3.05
2023-05-18T20:19:50.913Z,3.05
2023-05-18T20:20:53.037Z,2.72
2023-05-18T20:21:54.666Z,3.05
2023-05-18T20:22:56.823Z,2.75
2023-05-18T20:23:59.968Z,3.38
2023-05-18T20:25:01.702Z,3.92
2023-05-18T20:26:06.427Z,3.28
2023-05-18T20:27:08.656Z,3.15
2023-05-18T20:28:10.323Z,3.90
2023-05-18T20:29:14.247Z,3.75
2023-05-18T20:30:15.981Z,4.13
2023-05-18T20:31:18.142Z,3.17
2023-05-18T20:32:19.789Z,2.85
2023-05-18T20:33:22.839Z,3.08
2023-05-18T20:34:25.912Z,3.00
2023-05-18T20:35:27.653Z,2.60
2023-05-18T20:36:29.919Z,2.80
2023-05-18T20:37:34.187Z,3.35
2023-05-18T20:38:35.902Z,2.72
2023-05-18T20:39:37.800Z,2.65
2023-05-18T20:40:40.281Z,2.38
2023-05-18T20:41:42.158Z,2.47
2023-05-18T20:42:44.584Z,2.88
2023-05-18T20:43:46.253Z,2.85
2023-05-18T20:44:48.811Z,2.60
2023-05-18T20:45:51.557Z,2.25
2023-05-18T20:46:53.347Z,2.70
2023-05-18T20:47:56.752Z,2.95
2023-05-18T20:48:58.565Z,2.70
2023-05-18T20:50:00.297Z,2.17
2023-05-18T20:51:02.261Z,2.58
2023-05-18T20:52:04.246Z,2.60
2023-05-18T20:53:06.056Z,2.55
2023-05-18T20:54:07.901Z,2.35
2023-05-18T20:55:10.022Z,2.25
